sensor_id;sensor_type;location;lat;lon;timestamp;P1;durP1;ratioP1;P2;durP2;ratioP2
2564;SDS011;1292;48.020;7.822;2023-05-10T05:47:59;2.13;;;1.60;;
2564;SDS011;1292;48.020;7.822;2023-05-10T05:50:26;1.73;;;1.63;;
2564;SDS011;1292;48.020;7.822;2023-05-10T05:52:53;1.70;;;1.60;;
2564;SDS011;1292;48.020;7.822;2023-05-10T05:55:20;3.53;;;1.43;;
2564;SDS011;1292;48.020;7.822;2023-05-10T05:57:47;1.77;;;1.60;;
2564;SDS011;1292;48.020;7.822;2023-05-10T06:00:17;1.97;;;1.87;;
2564;SDS011;1292;48.020;7.822;2023-05-10T06:02:44;1.57;;;1.47;;
2564;SDS011;1292;48.020;7.822;2023-05-10T06:05:12;1.93;;;1.83;;
2564;SDS011;1292;48.020;7.822;2023-05-10T06:07:40;1.30;;;1.20;;
2564;SDS011;1292;48.020;7.822;2023-05-10T06:10:07;1.53;;;1.43;;
2564;SDS011;1292;48.020;7.822;2023-05-10T06:12:34;1.67;;;1.50;;
2564;SDS011;1292;48.020;7.822;2023-05-10T06:15:01;5.50;;;1.80;;
2564;SDS011;1292;48.020;7.822;2023-05-10T06:17:28;4.30;;;1.50;;
2564;SDS011;1292;48.020;7.822;2023-05-10T06:19:55;1.30;;;1.20;;
2564;SDS011;1292;48.020;7.822;2023-05-10T06:22:23;2.00;;;1.17;;
2564;SDS011;1292;48.020;7.822;2023-05-10T06:24:50;2.93;;;1.50;;
2564;SDS011;1292;48.020;7.822;2023-05-10T06:27:16;4.83;;;1.60;;
2564;SDS011;1292;48.020;7.822;2023-05-10T06:29:43;1.43;;;1.13;;
2564;SDS011;1292;48.020;7.822;2023-05-10T06:32:10;1.23;;;1.13;;
2564;SDS011;1292;48.020;7.822;2023-05-10T06:34:37;1.50;;;1.30;;
2564;SDS011;1292;48.020;7.822;2023-05-10T06:37:04;2.63;;;1.33;;
2564;SDS011;1292;48.020;7.822;2023-05-10T06:39:32;7.27;;;1.57;;
2564;SDS011;1292;48.020;7.822;2023-05-10T06:41:59;3.23;;;1.40;;
2564;SDS011;1292;48.020;7.822;2023-05-10T06:44:26;1.73;;;1.63;;
2564;SDS011;1292;48.020;7.822;2023-05-10T06:46:54;2.87;;;1.40;;
2564;SDS011;1292;48.020;7.822;2023-05-10T06:49:20;4.97;;;1.63;;
2564;SDS011;1292;48.020;7.822;2023-05-10T06:51:48;1.80;;;1.53;;
2564;SDS011;1292;48.020;7.822;2023-05-10T06:54:15;2.03;;;1.53;;
2564;SDS011;1292;48.020;7.822;2023-05-10T06:56:44;4.53;;;1.83;;
2564;SDS011;1292;48.020;7.822;2023-05-10T06:59:10;1.90;;;1.80;;
2564;SDS011;1292;48.020;7.822;2023-05-10T07:01:38;1.63;;;1.53;;
2564;SDS011;1292;48.020;7.822;2023-05-10T07:04:05;2.63;;;1.80;;
2564;SDS011;1292;48.020;7.822;2023-05-10T07:06:32;4.73;;;2.20;;
2564;SDS011;1292;48.020;7.822;2023-05-10T07:08:59;3.30;;;2.37;;
2564;SDS011;1292;48.020;7.822;2023-05-10T07:11:26;2.20;;;1.57;;
2564;SDS011;1292;48.020;7.822;2023-05-10T07:13:54;2.63;;;2.30;;
2564;SDS011;1292;48.020;7.822;2023-05-10T07:16:21;2.53;;;2.33;;
2564;SDS011;1292;48.020;7.822;2023-05-10T07:18:48;3.67;;;2.30;;
2564;SDS011;1292;48.020;7.822;2023-05-10T07:21:15;2.37;;;2.00;;
2564;SDS011;1292;48.020;7.822;2023-05-10T07:23:42;5.10;;;2.30;;
2564;SDS011;1292;48.020;7.822;2023-05-10T07:26:09;1.93;;;1.83;;
2564;SDS011;1292;48.020;7.822;2023-05-10T07:28:36;2.73;;;1.83;;
2564;SDS011;1292;48.020;7.822;2023-05-10T07:31:05;4.67;;;2.07;;
2564;SDS011;1292;48.020;7.822;2023-05-10T07:33:32;5.27;;;2.30;;
2564;SDS011;1292;48.020;7.822;2023-05-10T07:35:59;2.03;;;1.83;;
2564;SDS011;1292;48.020;7.822;2023-05-10T07:38:25;1.70;;;1.60;;
2564;SDS011;1292;48.020;7.822;2023-05-10T07:40:52;2.20;;;2.00;;
2564;SDS011;1292;48.020;7.822;2023-05-10T07:43:19;3.67;;;2.10;;
2564;SDS011;1292;48.020;7.822;2023-05-10T07:45:46;2.80;;;1.77;;
2564;SDS011;1292;48.020;7.822;2023-05-10T07:48:14;5.07;;;2.60;;
2564;SDS011;1292;48.020;7.822;2023-05-10T07:50:41;4.23;;;2.77;;
2564;SDS011;1292;48.020;7.822;2023-05-10T07:53:07;2.73;;;2.50;;
2564;SDS011;1292;48.020;7.822;2023-05-10T07:55:35;2.20;;;1.97;;
2564;SDS011;1292;48.020;7.822;2023-05-10T07:58:01;1.93;;;1.83;;
2564;SDS011;1292;48.020;7.822;2023-05-10T08:00:29;2.77;;;2.57;;
2564;SDS011;1292;48.020;7.822;2023-05-10T08:02:55;2.03;;;1.83;;
2564;SDS011;1292;48.020;7.822;2023-05-10T08:05:24;3.30;;;2.30;;
2564;SDS011;1292;48.020;7.822;2023-05-10T08:07:51;2.70;;;2.33;;
2564;SDS011;1292;48.020;7.822;2023-05-10T08:10:17;2.50;;;2.17;;
2564;SDS011;1292;48.020;7.822;2023-05-10T08:12:44;2.07;;;1.87;;
2564;SDS011;1292;48.020;7.822;2023-05-10T08:15:11;2.13;;;1.60;;
2564;SDS011;1292;48.020;7.822;2023-05-10T08:17:38;2.73;;;2.10;;
2564;SDS011;1292;48.020;7.822;2023-05-10T08:20:05;1.50;;;1.40;;
2564;SDS011;1292;48.020;7.822;2023-05-10T08:22:34;3.30;;;1.57;;
2564;SDS011;1292;48.020;7.822;2023-05-10T08:25:01;2.40;;;1.87;;
2564;SDS011;1292;48.020;7.822;2023-05-10T08:27:28;1.93;;;1.83;;
2564;SDS011;1292;48.020;7.822;2023-05-10T08:29:55;1.87;;;1.73;;
2564;SDS011;1292;48.020;7.822;2023-05-10T08:32:21;2.23;;;2.10;;
2564;SDS011;1292;48.020;7.822;2023-05-10T08:34:48;2.10;;;1.90;;
2564;SDS011;1292;48.020;7.822;2023-05-10T08:37:15;3.43;;;1.90;;
2564;SDS011;1292;48.020;7.822;2023-05-10T08:39:43;1.70;;;1.60;;
2564;SDS011;1292;48.020;7.822;2023-05-10T08:42:12;2.10;;;1.50;;
2564;SDS011;1292;48.020;7.822;2023-05-10T08:44:43;3.73;;;1.40;;
2564;SDS011;1292;48.020;7.822;2023-05-10T08:47:10;2.80;;;1.73;;
2564;SDS011;1292;48.020;7.822;2023-05-10T08:49:39;2.30;;;1.50;;
2564;SDS011;1292;48.020;7.822;2023-05-10T08:52:07;2.30;;;2.10;;
2564;SDS011;1292;48.020;7.822;2023-05-10T08:54:36;5.73;;;1.40;;
2564;SDS011;1292;48.020;7.822;2023-05-10T08:57:05;5.07;;;1.20;;
2564;SDS011;1292;48.020;7.822;2023-05-10T08:59:32;1.57;;;1.43;;
2564;SDS011;1292;48.020;7.822;2023-05-10T09:01:59;2.10;;;1.07;;
2564;SDS011;1292;48.020;7.822;2023-05-10T09:04:26;2.63;;;1.20;;
2564;SDS011;1292;48.020;7.822;2023-05-10T09:06:54;3.37;;;1.30;;
2564;SDS011;1292;48.020;7.822;2023-05-10T09:09:21;1.20;;;1.10;;
2564;SDS011;1292;48.020;7.822;2023-05-10T09:11:49;1.53;;;1.43;;
2564;SDS011;1292;48.020;7.822;2023-05-10T09:14:17;1.93;;;1.30;;
2564;SDS011;1292;48.020;7.822;2023-05-10T09:16:45;4.10;;;1.70;;
2564;SDS011;1292;48.020;7.822;2023-05-10T09:19:14;2.40;;;1.80;;
2564;SDS011;1292;48.020;7.822;2023-05-10T09:21:41;2.70;;;1.77;;
2564;SDS011;1292;48.020;7.822;2023-05-10T09:24:08;1.87;;;1.37;;
2564;SDS011;1292;48.020;7.822;2023-05-10T09:26:35;1.87;;;1.07;;
2564;SDS011;1292;48.020;7.822;2023-05-10T09:29:11;1.90;;;1.00;;
2564;SDS011;1292;48.020;7.822;2023-05-10T09:31:47;1.67;;;1.33;;
2564;SDS011;1292;48.020;7.822;2023-05-10T09:34:17;1.70;;;1.33;;
2564;SDS011;1292;48.020;7.822;2023-05-10T09:36:54;1.83;;;1.07;;
2564;SDS011;1292;48.020;7.822;2023-05-10T09:39:29;3.43;;;1.23;;
2564;SDS011;1292;48.020;7.822;2023-05-10T09:41:57;5.23;;;1.27;;
2564;SDS011;1292;48.020;7.822;2023-05-10T09:44:25;2.90;;;1.43;;
2564;SDS011;1292;48.020;7.822;2023-05-10T09:46:54;4.20;;;1.13;;
2564;SDS011;1292;48.020;7.822;2023-05-10T09:49:21;2.13;;;1.93;;
2564;SDS011;1292;48.020;7.822;2023-05-10T09:51:57;1.47;;;1.37;;
2564;SDS011;1292;48.020;7.822;2023-05-10T09:54:27;1.73;;;1.10;;
2564;SDS011;1292;48.020;7.822;2023-05-10T09:56:54;2.33;;;1.13;;
2564;SDS011;1292;48.020;7.822;2023-05-10T09:59:20;1.43;;;1.03;;
2564;SDS011;1292;48.020;7.822;2023-05-10T10:01:51;2.30;;;1.00;;
2564;SDS011;1292;48.020;7.822;2023-05-10T10:04:19;1.80;;;1.37;;
2564;SDS011;1292;48.020;7.822;2023-05-10T10:06:47;2.83;;;1.03;;
2564;SDS011;1292;48.020;7.822;2023-05-10T10:09:25;1.57;;;1.13;;
2564;SDS011;1292;48.020;7.822;2023-05-10T10:11:53;1.40;;;1.30;;
2564;SDS011;1292;48.020;7.822;2023-05-10T10:14:21;1.10;;;0.90;;
2564;SDS011;1292;48.020;7.822;2023-05-10T10:16:48;0.80;;;0.80;;
2564;SDS011;1292;48.020;7.822;2023-05-10T10:19:15;3.07;;;1.17;;
2564;SDS011;1292;48.020;7.822;2023-05-10T10:21:44;1.70;;;1.03;;
2564;SDS011;1292;48.020;7.822;2023-05-10T10:24:11;2.90;;;1.07;;
2564;SDS011;1292;48.020;7.822;2023-05-10T10:26:37;1.53;;;1.13;;
2564;SDS011;1292;48.020;7.822;2023-05-10T10:29:09;2.40;;;0.90;;
2564;SDS011;1292;48.020;7.822;2023-05-10T10:31:45;2.10;;;1.20;;
2564;SDS011;1292;48.020;7.822;2023-05-10T10:34:18;3.03;;;1.10;;
2564;SDS011;1292;48.020;7.822;2023-05-10T10:36:54;2.87;;;1.10;;
2564;SDS011;1292;48.020;7.822;2023-05-10T10:39:21;1.43;;;0.97;;
2564;SDS011;1292;48.020;7.822;2023-05-10T10:41:50;2.70;;;1.00;;
2564;SDS011;1292;48.020;7.822;2023-05-10T10:44:34;1.50;;;1.10;;
2564;SDS011;1292;48.020;7.822;2023-05-10T10:47:08;1.17;;;1.07;;
2564;SDS011;1292;48.020;7.822;2023-05-10T10:49:50;2.53;;;1.13;;
2564;SDS011;1292;48.020;7.822;2023-05-10T10:52:24;0.93;;;0.87;;
2564;SDS011;1292;48.020;7.822;2023-05-10T10:54:57;3.30;;;1.70;;
2564;SDS011;1292;48.020;7.822;2023-05-10T10:57:26;3.67;;;2.23;;
2564;SDS011;1292;48.020;7.822;2023-05-10T11:02:47;2.97;;;1.00;;
2564;SDS011;1292;48.020;7.822;2023-05-10T11:08:12;2.60;;;1.10;;
2564;SDS011;1292;48.020;7.822;2023-05-10T11:10:51;2.90;;;1.20;;
2564;SDS011;1292;48.020;7.822;2023-05-10T11:13:29;4.33;;;1.33;;
2564;SDS011;1292;48.020;7.822;2023-05-10T11:15:56;1.27;;;1.00;;
2564;SDS011;1292;48.020;7.822;2023-05-10T11:18:25;2.37;;;1.40;;
2564;SDS011;1292;48.020;7.822;2023-05-10T11:20:55;2.43;;;1.03;;
2564;SDS011;1292;48.020;7.822;2023-05-10T11:23:28;1.33;;;0.90;;
2564;SDS011;1292;48.020;7.822;2023-05-10T11:25:56;1.00;;;0.83;;
2564;SDS011;1292;48.020;7.822;2023-05-10T11:28:23;1.33;;;1.13;;
2564;SDS011;1292;48.020;7.822;2023-05-10T11:30:51;2.60;;;1.10;;
2564;SDS011;1292;48.020;7.822;2023-05-10T11:33:19;2.07;;;1.57;;
2564;SDS011;1292;48.020;7.822;2023-05-10T11:35:46;1.47;;;1.07;;
2564;SDS011;1292;48.020;7.822;2023-05-10T11:38:13;1.83;;;1.27;;
2564;SDS011;1292;48.020;7.822;2023-05-10T11:40:41;3.67;;;0.80;;
2564;SDS011;1292;48.020;7.822;2023-05-10T11:43:09;2.70;;;1.20;;
2564;SDS011;1292;48.020;7.822;2023-05-10T11:45:40;2.93;;;1.70;;
2564;SDS011;1292;48.020;7.822;2023-05-10T11:48:07;2.70;;;1.50;;
2564;SDS011;1292;48.020;7.822;2023-05-10T11:50:34;1.60;;;1.40;;
2564;SDS011;1292;48.020;7.822;2023-05-10T11:53:01;1.67;;;1.57;;
2564;SDS011;1292;48.020;7.822;2023-05-10T11:55:28;1.33;;;1.23;;
2564;SDS011;1292;48.020;7.822;2023-05-10T11:58:01;3.60;;;1.30;;
2564;SDS011;1292;48.020;7.822;2023-05-10T12:00:28;1.20;;;1.10;;
2564;SDS011;1292;48.020;7.822;2023-05-10T12:02:56;1.10;;;1.00;;
2564;SDS011;1292;48.020;7.822;2023-05-10T12:05:23;1.10;;;1.00;;
2564;SDS011;1292;48.020;7.822;2023-05-10T12:07:53;1.80;;;0.90;;
2564;SDS011;1292;48.020;7.822;2023-05-10T12:10:44;1.83;;;0.90;;
2564;SDS011;1292;48.020;7.822;2023-05-10T12:13:12;1.53;;;1.20;;
2564;SDS011;1292;48.020;7.822;2023-05-10T12:15:40;0.60;;;0.60;;
2564;SDS011;1292;48.020;7.822;2023-05-10T12:18:07;3.47;;;1.00;;
2564;SDS011;1292;48.020;7.822;2023-05-10T12:20:35;1.53;;;0.80;;
2564;SDS011;1292;48.020;7.822;2023-05-10T12:23:02;1.43;;;0.90;;
2564;SDS011;1292;48.020;7.822;2023-05-10T12:25:31;1.50;;;0.90;;
2564;SDS011;1292;48.020;7.822;2023-05-10T12:27:59;2.97;;;0.80;;
2564;SDS011;1292;48.020;7.822;2023-05-10T12:30:30;2.53;;;1.33;;
2564;SDS011;1292;48.020;7.822;2023-05-10T12:32:59;3.83;;;0.83;;
2564;SDS011;1292;48.020;7.822;2023-05-10T12:35:29;0.70;;;0.70;;
2564;SDS011;1292;48.020;7.822;2023-05-10T12:37:57;0.90;;;0.80;;
2564;SDS011;1292;48.020;7.822;2023-05-10T12:40:23;1.43;;;1.00;;
2564;SDS011;1292;48.020;7.822;2023-05-10T12:42:50;1.60;;;0.80;;
2564;SDS011;1292;48.020;7.822;2023-05-10T12:45:18;2.17;;;1.07;;
2564;SDS011;1292;48.020;7.822;2023-05-10T12:47:46;1.10;;;1.00;;
2564;SDS011;1292;48.020;7.822;2023-05-10T12:50:13;4.40;;;1.13;;
2564;SDS011;1292;48.020;7.822;2023-05-10T12:52:40;1.57;;;1.00;;
2564;SDS011;1292;48.020;7.822;2023-05-10T12:55:07;1.03;;;1.00;;
2564;SDS011;1292;48.020;7.822;2023-05-10T12:57:34;1.77;;;1.03;;
2564;SDS011;1292;48.020;7.822;2023-05-10T13:00:01;1.03;;;0.93;;
2564;SDS011;1292;48.020;7.822;2023-05-10T13:02:29;1.20;;;1.10;;
2564;SDS011;1292;48.020;7.822;2023-05-10T13:04:58;2.53;;;1.23;;
2564;SDS011;1292;48.020;7.822;2023-05-10T13:07:25;3.13;;;1.07;;
2564;SDS011;1292;48.020;7.822;2023-05-10T13:09:51;1.17;;;1.00;;
2564;SDS011;1292;48.020;7.822;2023-05-10T13:12:18;0.70;;;0.70;;
2564;SDS011;1292;48.020;7.822;2023-05-10T13:14:45;0.87;;;0.80;;
2564;SDS011;1292;48.020;7.822;2023-05-10T13:17:12;0.63;;;0.63;;
2564;SDS011;1292;48.020;7.822;2023-05-10T13:19:39;3.63;;;1.13;;
2564;SDS011;1292;48.020;7.822;2023-05-10T13:22:07;3.23;;;0.80;;
2564;SDS011;1292;48.020;7.822;2023-05-10T13:24:34;1.43;;;0.70;;
2564;SDS011;1292;48.020;7.822;2023-05-10T13:27:00;0.90;;;0.80;;
2564;SDS011;1292;48.020;7.822;2023-05-10T13:29:27;1.43;;;1.10;;
2564;SDS011;1292;48.020;7.822;2023-05-10T13:31:54;1.67;;;1.40;;
2564;SDS011;1292;48.020;7.822;2023-05-10T13:34:21;1.97;;;0.80;;
2564;SDS011;1292;48.020;7.822;2023-05-10T13:36:49;1.13;;;1.00;;
2564;SDS011;1292;48.020;7.822;2023-05-10T13:39:17;1.30;;;0.97;;
2564;SDS011;1292;48.020;7.822;2023-05-10T13:41:44;4.47;;;0.80;;
2564;SDS011;1292;48.020;7.822;2023-05-10T13:44:11;1.60;;;1.27;;
2564;SDS011;1292;48.020;7.822;2023-05-10T13:46:39;1.00;;;0.90;;
2564;SDS011;1292;48.020;7.822;2023-05-10T13:49:05;1.57;;;1.00;;
2564;SDS011;1292;48.020;7.822;2023-05-10T13:51:35;1.00;;;1.00;;
2564;SDS011;1292;48.020;7.822;2023-05-10T13:54:02;0.63;;;0.63;;
2564;SDS011;1292;48.020;7.822;2023-05-10T13:56:31;0.83;;;0.70;;
2564;SDS011;1292;48.020;7.822;2023-05-10T13:58:58;2.17;;;0.87;;
2564;SDS011;1292;48.020;7.822;2023-05-10T14:01:25;1.70;;;1.27;;
2564;SDS011;1292;48.020;7.822;2023-05-10T14:03:52;3.37;;;0.70;;
2564;SDS011;1292;48.020;7.822;2023-05-10T14:06:19;2.77;;;1.90;;
2564;SDS011;1292;48.020;7.822;2023-05-10T14:08:46;1.60;;;1.10;;
2564;SDS011;1292;48.020;7.822;2023-05-10T14:11:13;1.10;;;1.00;;
2564;SDS011;1292;48.020;7.822;2023-05-10T14:13:42;0.93;;;0.90;;
2564;SDS011;1292;48.020;7.822;2023-05-10T14:16:08;1.70;;;0.93;;
2564;SDS011;1292;48.020;7.822;2023-05-10T14:18:36;0.80;;;0.80;;
2564;SDS011;1292;48.020;7.822;2023-05-10T14:21:03;2.30;;;1.20;;
2564;SDS011;1292;48.020;7.822;2023-05-10T14:23:30;3.00;;;1.10;;
2564;SDS011;1292;48.020;7.822;2023-05-10T14:25:57;0.87;;;0.70;;
2564;SDS011;1292;48.020;7.822;2023-05-10T14:28:24;1.90;;;0.90;;
2564;SDS011;1292;48.020;7.822;2023-05-10T14:30:52;1.80;;;1.50;;
2564;SDS011;1292;48.020;7.822;2023-05-10T14:33:19;3.30;;;2.10;;
2564;SDS011;1292;48.020;7.822;2023-05-10T14:35:47;1.17;;;1.07;;
2564;SDS011;1292;48.020;7.822;2023-05-10T14:38:14;5.40;;;1.83;;
2564;SDS011;1292;48.020;7.822;2023-05-10T14:40:41;1.37;;;1.10;;
2564;SDS011;1292;48.020;7.822;2023-05-10T14:43:08;2.30;;;1.47;;
2564;SDS011;1292;48.020;7.822;2023-05-10T14:45:35;1.30;;;1.20;;
2564;SDS011;1292;48.020;7.822;2023-05-10T14:48:03;1.00;;;0.90;;
2564;SDS011;1292;48.020;7.822;2023-05-10T14:50:30;1.37;;;1.00;;
2564;SDS011;1292;48.020;7.822;2023-05-10T14:52:58;2.30;;;1.13;;
2564;SDS011;1292;48.020;7.822;2023-05-10T14:55:25;1.00;;;0.80;;
2564;SDS011;1292;48.020;7.822;2023-05-10T14:57:52;0.60;;;0.60;;
2564;SDS011;1292;48.020;7.822;2023-05-10T15:00:19;1.03;;;0.70;;
2564;SDS011;1292;48.020;7.822;2023-05-10T15:02:47;2.03;;;1.17;;
2564;SDS011;1292;48.020;7.822;2023-05-10T15:05:16;1.63;;;0.90;;
2564;SDS011;1292;48.020;7.822;2023-05-10T15:07:42;1.30;;;0.70;;
2564;SDS011;1292;48.020;7.822;2023-05-10T15:10:10;1.47;;;0.97;;
2564;SDS011;1292;48.020;7.822;2023-05-10T15:12:38;0.70;;;0.70;;
2564;SDS011;1292;48.020;7.822;2023-05-10T15:15:05;0.80;;;0.80;;
2564;SDS011;1292;48.020;7.822;2023-05-10T15:17:33;1.23;;;0.73;;
2564;SDS011;1292;48.020;7.822;2023-05-10T15:20:00;1.37;;;0.90;;
2564;SDS011;1292;48.020;7.822;2023-05-10T15:22:29;1.87;;;0.63;;
2564;SDS011;1292;48.020;7.822;2023-05-10T15:24:56;1.30;;;1.00;;
2564;SDS011;1292;48.020;7.822;2023-05-10T15:27:23;1.27;;;0.80;;
2564;SDS011;1292;48.020;7.822;2023-05-10T15:29:50;1.13;;;0.80;;
2564;SDS011;1292;48.020;7.822;2023-05-10T15:32:17;4.10;;;2.10;;
2564;SDS011;1292;48.020;7.822;2023-05-10T15:34:44;1.03;;;0.97;;
2564;SDS011;1292;48.020;7.822;2023-05-10T15:37:11;0.60;;;0.60;;
2564;SDS011;1292;48.020;7.822;2023-05-10T15:39:39;0.93;;;0.93;;
2564;SDS011;1292;48.020;7.822;2023-05-10T15:42:06;1.83;;;0.70;;
2564;SDS011;1292;48.020;7.822;2023-05-10T15:44:33;0.90;;;0.70;;
2564;SDS011;1292;48.020;7.822;2023-05-10T15:47:03;0.60;;;0.60;;
2564;SDS011;1292;48.020;7.822;2023-05-10T15:49:30;0.60;;;0.60;;
2564;SDS011;1292;48.020;7.822;2023-05-10T15:51:57;1.23;;;0.67;;
2564;SDS011;1292;48.020;7.822;2023-05-10T15:54:24;1.23;;;0.70;;
2564;SDS011;1292;48.020;7.822;2023-05-10T15:56:52;1.03;;;0.67;;
2564;SDS011;1292;48.020;7.822;2023-05-10T15:59:19;1.67;;;1.00;;
2564;SDS011;1292;48.020;7.822;2023-05-10T16:01:46;1.57;;;0.70;;
2564;SDS011;1292;48.020;7.822;2023-05-10T16:04:13;1.10;;;0.90;;
2564;SDS011;1292;48.020;7.822;2023-05-10T16:06:40;0.90;;;0.70;;
2564;SDS011;1292;48.020;7.822;2023-05-10T16:09:07;0.90;;;0.80;;
2564;SDS011;1292;48.020;7.822;2023-05-10T16:11:34;0.60;;;0.60;;
2564;SDS011;1292;48.020;7.822;2023-05-10T16:14:03;0.63;;;0.63;;
2564;SDS011;1292;48.020;7.822;2023-05-10T16:16:30;1.20;;;1.10;;
2564;SDS011;1292;48.020;7.822;2023-05-10T16:18:57;1.43;;;1.00;;
2564;SDS011;1292;48.020;7.822;2023-05-10T16:21:25;2.57;;;0.80;;
2564;SDS011;1292;48.020;7.822;2023-05-10T16:23:53;2.03;;;1.00;;
2564;SDS011;1292;48.020;7.822;2023-05-10T16:26:19;1.73;;;0.97;;
2564;SDS011;1292;48.020;7.822;2023-05-10T16:28:47;1.43;;;1.00;;
2564;SDS011;1292;48.020;7.822;2023-05-10T16:31:15;0.80;;;0.80;;
2564;SDS011;1292;48.020;7.822;2023-05-10T16:33:44;0.73;;;0.70;;
2564;SDS011;1292;48.020;7.822;2023-05-10T16:36:10;1.13;;;0.80;;
2564;SDS011;1292;48.020;7.822;2023-05-10T16:38:37;0.90;;;0.70;;
2564;SDS011;1292;48.020;7.822;2023-05-10T16:41:05;3.70;;;0.80;;
2564;SDS011;1292;48.020;7.822;2023-05-10T16:43:32;1.10;;;1.00;;
2564;SDS011;1292;48.020;7.822;2023-05-10T16:45:59;0.50;;;0.50;;
2564;SDS011;1292;48.020;7.822;2023-05-10T16:48:28;1.30;;;0.83;;
2564;SDS011;1292;48.020;7.822;2023-05-10T16:50:55;4.00;;;0.83;;
2564;SDS011;1292;48.020;7.822;2023-05-10T16:53:22;1.07;;;0.80;;
2564;SDS011;1292;48.020;7.822;2023-05-10T16:55:49;1.60;;;1.17;;
2564;SDS011;1292;48.020;7.822;2023-05-10T16:58:16;6.10;;;0.90;;
2564;SDS011;1292;48.020;7.822;2023-05-10T17:00:43;3.90;;;1.40;;
2564;SDS011;1292;48.020;7.822;2023-05-10T17:03:10;0.80;;;0.70;;
2564;SDS011;1292;48.020;7.822;2023-05-10T17:08:28;1.13;;;0.83;;
2564;SDS011;1292;48.020;7.822;2023-05-10T17:10:55;1.50;;;0.60;;
2564;SDS011;1292;48.020;7.822;2023-05-10T17:13:21;1.07;;;0.90;;
2564;SDS011;1292;48.020;7.822;2023-05-10T17:15:48;0.60;;;0.60;;
2564;SDS011;1292;48.020;7.822;2023-05-10T17:18:15;1.00;;;0.70;;
2564;SDS011;1292;48.020;7.822;2023-05-10T17:20:43;0.73;;;0.70;;
2564;SDS011;1292;48.020;7.822;2023-05-10T17:23:11;0.60;;;0.60;;
2564;SDS011;1292;48.020;7.822;2023-05-10T17:25:38;0.73;;;0.73;;
2564;SDS011;1292;48.020;7.822;2023-05-10T17:28:06;1.00;;;0.80;;
2564;SDS011;1292;48.020;7.822;2023-05-10T17:30:33;0.70;;;0.70;;
2564;SDS011;1292;48.020;7.822;2023-05-10T17:33:00;0.80;;;0.70;;
2564;SDS011;1292;48.020;7.822;2023-05-10T17:35:27;0.70;;;0.60;;
2564;SDS011;1292;48.020;7.822;2023-05-10T17:37:55;2.20;;;1.50;;
2564;SDS011;1292;48.020;7.822;2023-05-10T17:40:23;1.57;;;1.23;;
2564;SDS011;1292;48.020;7.822;2023-05-10T17:42:50;0.70;;;0.70;;
2564;SDS011;1292;48.020;7.822;2023-05-10T17:45:18;1.60;;;1.50;;
2564;SDS011;1292;48.020;7.822;2023-05-10T17:47:45;3.80;;;1.10;;
2564;SDS011;1292;48.020;7.822;2023-05-10T17:50:13;1.47;;;1.37;;
2564;SDS011;1292;48.020;7.822;2023-05-10T17:52:41;1.10;;;1.00;;
2564;SDS011;1292;48.020;7.822;2023-05-10T17:55:08;1.60;;;0.90;;
2564;SDS011;1292;48.020;7.822;2023-05-10T17:57:38;3.30;;;1.70;;
2564;SDS011;1292;48.020;7.822;2023-05-10T18:00:05;1.30;;;1.20;;
2564;SDS011;1292;48.020;7.822;2023-05-10T18:02:35;1.70;;;1.60;;
2564;SDS011;1292;48.020;7.822;2023-05-10T18:05:02;0.97;;;0.87;;
2564;SDS011;1292;48.020;7.822;2023-05-10T18:07:29;0.90;;;0.70;;
2564;SDS011;1292;48.020;7.822;2023-05-10T18:09:56;0.80;;;0.80;;
2564;SDS011;1292;48.020;7.822;2023-05-10T18:12:23;1.37;;;0.63;;
2564;SDS011;1292;48.020;7.822;2023-05-10T18:14:52;0.70;;;0.63;;
2564;SDS011;1292;48.020;7.822;2023-05-10T18:17:19;3.13;;;0.70;;
2564;SDS011;1292;48.020;7.822;2023-05-10T18:19:46;0.80;;;0.70;;
2564;SDS011;1292;48.020;7.822;2023-05-10T18:22:13;0.50;;;0.50;;
2564;SDS011;1292;48.020;7.822;2023-05-10T18:24:40;0.97;;;0.60;;
2564;SDS011;1292;48.020;7.822;2023-05-10T18:27:07;1.17;;;0.77;;
2564;SDS011;1292;48.020;7.822;2023-05-10T18:29:34;0.70;;;0.70;;
2564;SDS011;1292;48.020;7.822;2023-05-10T18:32:03;2.30;;;0.70;;
2564;SDS011;1292;48.020;7.822;2023-05-10T18:34:30;1.90;;;0.60;;
2564;SDS011;1292;48.020;7.822;2023-05-10T18:36:57;1.33;;;0.60;;
2564;SDS011;1292;48.020;7.822;2023-05-10T18:39:24;0.80;;;0.73;;
2564;SDS011;1292;48.020;7.822;2023-05-10T18:41:51;0.87;;;0.60;;
2564;SDS011;1292;48.020;7.822;2023-05-10T18:44:18;0.90;;;0.50;;
2564;SDS011;1292;48.020;7.822;2023-05-10T18:46:45;0.83;;;0.80;;
2564;SDS011;1292;48.020;7.822;2023-05-10T18:49:14;1.67;;;0.97;;
2564;SDS011;1292;48.020;7.822;2023-05-10T18:51:41;0.63;;;0.60;;
2564;SDS011;1292;48.020;7.822;2023-05-10T18:54:07;0.67;;;0.60;;
2564;SDS011;1292;48.020;7.822;2023-05-10T18:56:34;0.87;;;0.60;;
2564;SDS011;1292;48.020;7.822;2023-05-10T18:59:03;0.90;;;0.67;;
2564;SDS011;1292;48.020;7.822;2023-05-10T19:01:30;3.17;;;0.80;;
2564;SDS011;1292;48.020;7.822;2023-05-10T19:03:57;1.03;;;0.73;;
2564;SDS011;1292;48.020;7.822;2023-05-10T19:06:25;0.87;;;0.60;;
2564;SDS011;1292;48.020;7.822;2023-05-10T19:08:52;0.70;;;0.67;;
2564;SDS011;1292;48.020;7.822;2023-05-10T19:11:19;3.33;;;0.93;;
2564;SDS011;1292;48.020;7.822;2023-05-10T19:13:46;1.30;;;1.20;;
2564;SDS011;1292;48.020;7.822;2023-05-10T19:16:13;0.70;;;0.70;;
2564;SDS011;1292;48.020;7.822;2023-05-10T19:18:41;1.00;;;0.60;;
2564;SDS011;1292;48.020;7.822;2023-05-10T19:21:08;0.80;;;0.80;;
2564;SDS011;1292;48.020;7.822;2023-05-10T19:23:37;1.40;;;1.20;;
2564;SDS011;1292;48.020;7.822;2023-05-10T19:26:05;1.03;;;0.73;;
2564;SDS011;1292;48.020;7.822;2023-05-10T19:28:33;0.83;;;0.77;;
2564;SDS011;1292;48.020;7.822;2023-05-10T19:31:00;0.80;;;0.70;;
2564;SDS011;1292;48.020;7.822;2023-05-10T19:33:27;0.70;;;0.67;;
2564;SDS011;1292;48.020;7.822;2023-05-10T19:35:54;1.37;;;0.60;;
2564;SDS011;1292;48.020;7.822;2023-05-10T19:38:21;1.00;;;0.70;;
2564;SDS011;1292;48.020;7.822;2023-05-10T19:40:50;0.90;;;0.80;;
2564;SDS011;1292;48.020;7.822;2023-05-10T19:43:21;0.90;;;0.80;;
2564;SDS011;1292;48.020;7.822;2023-05-10T19:45:48;1.03;;;0.70;;
2564;SDS011;1292;48.020;7.822;2023-05-10T19:48:15;3.30;;;0.77;;
2564;SDS011;1292;48.020;7.822;2023-05-10T19:50:42;1.00;;;0.90;;
2564;SDS011;1292;48.020;7.822;2023-05-10T19:53:09;0.80;;;0.70;;
2564;SDS011;1292;48.020;7.822;2023-05-10T19:55:35;1.20;;;1.10;;
2564;SDS011;1292;48.020;7.822;2023-05-10T19:58:04;1.10;;;0.83;;
2564;SDS011;1292;48.020;7.822;2023-05-10T20:00:31;0.77;;;0.77;;
2564;SDS011;1292;48.020;7.822;2023-05-10T20:02:57;2.17;;;1.07;;
2564;SDS011;1292;48.020;7.822;2023-05-10T20:05:24;1.07;;;0.97;;
2564;SDS011;1292;48.020;7.822;2023-05-10T20:07:51;1.13;;;0.80;;
2564;SDS011;1292;48.020;7.822;2023-05-10T20:10:18;0.80;;;0.80;;
2564;SDS011;1292;48.020;7.822;2023-05-10T20:12:46;0.77;;;0.70;;
2564;SDS011;1292;48.020;7.822;2023-05-10T20:15:16;1.80;;;1.00;;
2564;SDS011;1292;48.020;7.822;2023-05-10T20:17:44;0.83;;;0.77;;
2564;SDS011;1292;48.020;7.822;2023-05-10T20:20:12;0.90;;;0.70;;
2564;SDS011;1292;48.020;7.822;2023-05-10T20:22:40;0.80;;;0.60;;
2564;SDS011;1292;48.020;7.822;2023-05-10T20:25:07;0.70;;;0.70;;
2564;SDS011;1292;48.020;7.822;2023-05-10T20:27:35;0.70;;;0.70;;
2564;SDS011;1292;48.020;7.822;2023-05-10T20:30:02;0.73;;;0.73;;
2564;SDS011;1292;48.020;7.822;2023-05-10T20:32:31;1.63;;;0.87;;
2564;SDS011;1292;48.020;7.822;2023-05-10T20:34:59;1.60;;;1.30;;
2564;SDS011;1292;48.020;7.822;2023-05-10T20:37:26;1.07;;;1.00;;
2564;SDS011;1292;48.020;7.822;2023-05-10T20:39:53;0.70;;;0.60;;
2564;SDS011;1292;48.020;7.822;2023-05-10T20:42:22;2.00;;;0.70;;
2564;SDS011;1292;48.020;7.822;2023-05-10T20:44:49;1.10;;;1.00;;
2564;SDS011;1292;48.020;7.822;2023-05-10T20:47:16;0.70;;;0.70;;
2564;SDS011;1292;48.020;7.822;2023-05-10T20:49:45;1.20;;;0.90;;
2564;SDS011;1292;48.020;7.822;2023-05-10T20:52:12;0.70;;;0.70;;
2564;SDS011;1292;48.020;7.822;2023-05-10T20:54:39;0.70;;;0.70;;
2564;SDS011;1292;48.020;7.822;2023-05-10T20:57:06;1.47;;;1.00;;
2564;SDS011;1292;48.020;7.822;2023-05-10T20:59:33;2.30;;;1.00;;
2564;SDS011;1292;48.020;7.822;2023-05-10T21:02:00;1.57;;;0.80;;
2564;SDS011;1292;48.020;7.822;2023-05-10T21:04:26;0.67;;;0.67;;
2564;SDS011;1292;48.020;7.822;2023-05-10T21:06:56;1.87;;;0.90;;
2564;SDS011;1292;48.020;7.822;2023-05-10T21:09:22;0.70;;;0.70;;
2564;SDS011;1292;48.020;7.822;2023-05-10T21:11:49;1.67;;;0.70;;
2564;SDS011;1292;48.020;7.822;2023-05-10T21:14:16;0.70;;;0.70;;